Time;durP1;ratioP1;P1;durP2;ratioP2;P2;SDS_P1;SDS_P2;PMS_P1;PMS_P2;Temp;Humidity;BMP_temperature;BMP_pressure;BME280_temperature;BME280_humidity;BME280_pressure;Samples;Min_cycle;Max_cycle;Signal;HPM_P1;HPM_P2
2021/05/29 00:01:39;;;;;;;24.02;12.75;;;;;;;11.07;75.13;98307.08;1721901;83;21013;-76
2021/05/29 00:04:05;;;;;;;14.47;9.00;;;;;;;11.10;74.42;98307.87;1721622;83;20960;-76
2021/05/29 00:06:31;;;;;;;13.75;8.28;;;;;;;11.10;73.24;98309.22;1721770;83;20889;-76
2021/05/29 00:08:57;;;;;;;15.53;8.48;;;;;;;11.00;75.77;98307.91;1721768;82;21385;-76
2021/05/29 00:11:23;;;;;;;12.75;7.75;;;;;;;11.00;75.77;98307.91;1721732;83;21700;-76
2021/05/29 00:13:49;;;;;;;12.13;7.22;;;;;;;11.01;74.65;98310.33;1694911;83;21415;-76
2021/05/29 00:16:15;;;;;;;10.78;7.70;;;;;;;11.02;73.84;98316.56;1721750;83;20941;-76
2021/05/29 00:18:41;;;;;;;12.78;8.23;;;;;;;10.99;73.98;98311.16;1721707;82;20941;-76
2021/05/29 00:21:07;;;;;;;12.35;6.95;;;;;;;10.94;74.32;98307.13;1721856;82;20960;-76
2021/05/29 00:23:39;;;;;;;12.65;7.25;;;;;;;10.92;75.84;98311.17;1721729;82;21743;-76
2021/05/29 00:26:05;;;;;;;14.78;7.35;;;;;;;10.96;74.42;98311.72;1721795;82;20965;-76
2021/05/29 00:28:32;;;;;;;14.63;8.40;;;;;;;11.00;74.10;98309.25;1721738;83;21483;-76
2021/05/29 00:30:58;;;;;;;10.88;7.50;;;;;;;10.97;74.35;98310.63;1721573;83;21032;-76
2021/05/29 00:33:24;;;;;;;15.30;8.58;;;;;;;10.96;74.66;98306.30;1694993;83;20949;-76
2021/05/29 00:35:50;;;;;;;20.35;11.73;;;;;;;10.99;75.36;98311.70;1721851;83;21308;-76
2021/05/29 00:38:16;;;;;;;14.85;10.05;;;;;;;10.98;76.83;98312.25;1721523;83;21471;-76
2021/05/29 00:40:42;;;;;;;13.35;9.23;;;;;;;10.93;76.70;98313.61;1721671;83;20841;-76
2021/05/29 00:43:07;;;;;;;11.75;8.75;;;;;;;10.96;75.25;98314.98;1695067;83;20921;-76
2021/05/29 00:45:34;;;;;;;16.95;10.35;;;;;;;10.94;76.33;98309.83;1722259;83;21038;-76
2021/05/29 00:48:00;;;;;;;13.13;9.03;;;;;;;10.95;76.76;98306.58;1721762;82;21687;-76
2021/05/29 00:50:27;;;;;;;17.10;9.03;;;;;;;11.01;76.02;98312.23;1721500;83;20977;-76
2021/05/29 00:52:53;;;;;;;13.48;8.65;;;;;;;11.00;76.07;98306.00;1721831;82;21004;-76
2021/05/29 00:55:19;;;;;;;13.50;8.90;;;;;;;11.03;75.72;98304.66;1721704;83;21551;-76
2021/05/29 00:57:50;;;;;;;14.83;8.98;;;;;;;11.03;76.33;98301.14;1721509;83;20941;-76
2021/05/29 01:00:18;;;;;;;12.00;8.18;;;;;;;11.06;75.81;98302.73;1721565;83;21784;-75
2021/05/29 01:02:46;;;;;;;12.88;8.40;;;;;;;11.03;75.67;98295.72;1721638;82;20941;-76
2021/05/29 01:05:13;;;;;;;11.38;8.53;;;;;;;11.00;76.14;98292.45;1695280;83;21508;-76
2021/05/29 01:07:39;;;;;;;15.78;8.58;;;;;;;11.00;75.56;98289.73;1721764;82;20980;-76
2021/05/29 01:10:07;;;;;;;16.77;10.38;;;;;;;11.00;75.61;98288.92;1721726;82;21476;-76
2021/05/29 01:12:33;;;;;;;14.80;10.18;;;;;;;10.95;75.91;98291.66;1721494;83;21642;-76
2021/05/29 01:15:00;;;;;;;15.75;9.73;;;;;;;10.89;76.42;98281.91;1721595;83;20936;-76
2021/05/29 01:17:28;;;;;;;15.90;7.12;;;;;;;10.94;75.63;98294.92;1721524;83;20961;-76
2021/05/29 01:19:54;;;;;;;11.95;8.28;;;;;;;10.96;75.64;98290.58;1721792;82;20989;-76
2021/05/29 01:22:43;;;;;;;14.90;8.83;;;;;;;10.92;76.98;98289.48;1694737;83;21109;-76
2021/05/29 01:25:15;;;;;;;14.07;8.38;;;;;;;10.93;76.68;98287.84;1721607;82;21117;-76
2021/05/29 01:27:42;;;;;;;11.25;7.67;;;;;;;10.97;75.91;98292.20;1721457;83;21016;-76
2021/05/29 01:30:10;;;;;;;10.85;7.62;;;;;;;10.89;78.68;98289.50;1721564;82;21008;-76
2021/05/29 01:32:36;;;;;;;14.78;8.20;;;;;;;10.89;77.27;98285.98;1694978;83;20965;-76
2021/05/29 01:35:10;;;;;;;12.90;7.75;;;;;;;10.94;77.87;98295.47;1721718;83;21024;-76
2021/05/29 01:37:37;;;;;;;12.68;8.75;;;;;;;10.92;77.22;98288.94;1721237;83;21374;-75
2021/05/29 01:40:05;;;;;;;10.65;7.12;;;;;;;10.89;78.41;98288.69;1721520;83;21001;-75
2021/05/29 01:42:31;;;;;;;19.57;9.35;;;;;;;10.89;76.62;98284.08;1695519;83;20996;-75
2021/05/29 01:44:57;;;;;;;13.58;8.93;;;;;;;10.84;77.75;98288.69;1721710;82;20944;-75
2021/05/29 01:47:24;;;;;;;10.72;8.53;;;;;;;10.76;79.32;98290.06;1721678;83;20963;-75
2021/05/29 01:49:50;;;;;;;15.20;9.55;;;;;;;10.84;78.46;98286.79;1672074;83;21241;-75
2021/05/29 01:52:16;;;;;;;13.58;8.40;;;;;;;10.84;78.46;98286.79;1721555;83;20941;-75
2021/05/29 01:54:42;;;;;;;12.40;8.30;;;;;;;10.90;77.34;98282.17;1695132;83;21539;-75
2021/05/29 01:57:08;;;;;;;14.70;7.60;;;;;;;10.90;77.14;98284.89;1721467;82;20929;-75
2021/05/29 01:59:34;;;;;;;12.82;8.68;;;;;;;10.93;77.20;98281.07;1721570;83;21021;-75
2021/05/29 02:02:00;;;;;;;13.98;8.60;;;;;;;10.93;78.56;98280.27;1721737;82;21151;-75
2021/05/29 02:04:26;;;;;;;14.55;9.65;;;;;;;10.99;77.63;98278.62;1694756;83;20905;-75
2021/05/29 02:06:52;;;;;;;13.58;8.80;;;;;;;11.05;78.16;98282.69;1721776;83;20924;-75
2021/05/29 02:09:18;;;;;;;12.65;8.75;;;;;;;11.05;77.77;98277.27;1721720;82;21485;-75
2021/05/29 02:11:44;;;;;;;13.55;10.55;;;;;;;11.03;77.27;98275.38;1721576;82;21020;-75
2021/05/29 02:14:10;;;;;;;13.15;9.00;;;;;;;10.94;78.94;98277.30;1721793;83;21084;-75
2021/05/29 02:16:36;;;;;;;14.43;10.53;;;;;;;10.97;77.44;98275.38;1721688;82;20878;-75
2021/05/29 02:19:02;;;;;;;14.15;10.38;;;;;;;10.98;77.06;98279.71;1721681;82;20905;-75
2021/05/29 02:21:28;;;;;;;15.23;9.50;;;;;;;10.92;78.57;98274.03;1694600;83;20944;-75
2021/05/29 02:23:53;;;;;;;19.23;9.93;;;;;;;10.89;78.35;98274.59;1721648;83;20845;-75
2021/05/29 02:26:21;;;;;;;18.52;10.75;;;;;;;10.88;78.92;98275.68;1721722;82;21016;-75
2021/05/29 02:28:56;;;;;;;15.38;10.58;;;;;;;10.90;77.70;98269.98;1721550;82;20997;-75
2021/05/29 02:31:22;;;;;;;15.85;9.73;;;;;;;10.91;78.10;98263.47;1721996;83;20985;-75
2021/05/29 02:33:48;;;;;;;17.23;11.03;;;;;;;10.95;77.52;98265.36;1721624;83;21072;-75
2021/05/29 02:36:14;;;;;;;18.90;10.95;;;;;;;10.91;77.77;98260.20;1721559;83;21475;-75
2021/05/29 02:38:40;;;;;;;16.40;10.60;;;;;;;10.87;77.81;98256.44;1721562;83;21755;-75
2021/05/29 02:41:09;;;;;;;16.65;10.88;;;;;;;10.94;78.26;98256.97;1721506;82;21024;-75
2021/05/29 02:43:35;;;;;;;;;;;;;;;10.94;78.26;98256.97;1724150;83;20968;-76
2021/05/29 02:46:01;;;;;;;16.37;9.80;;;;;;;10.94;78.05;98253.44;1746448;81;20234;-76
2021/05/29 02:48:27;;;;;;;14.78;11.08;;;;;;;10.93;77.95;98252.60;1721757;83;21459;-76
2021/05/29 02:50:53;;;;;;;17.12;11.38;;;;;;;10.96;77.52;98256.69;1721540;83;21235;-76
2021/05/29 02:53:19;;;;;;;17.10;11.85;;;;;;;10.96;77.69;98253.97;1721569;83;20861;-76
2021/05/29 02:55:45;;;;;;;17.17;12.45;;;;;;;10.95;77.45;98260.48;1721686;83;20948;-76
2021/05/29 02:58:11;;;;;;;17.62;12.35;;;;;;;10.95;77.32;98261.30;1721570;83;21519;-76
2021/05/29 03:00:40;;;;;;;13.62;9.73;;;;;;;10.95;77.41;98261.84;1721605;82;21093;-76
2021/05/29 03:03:09;;;;;;;12.43;8.88;;;;;;;11.00;77.68;98259.91;1721650;82;21365;-76
2021/05/29 03:05:38;;;;;;;15.65;9.60;;;;;;;11.08;77.18;98265.30;1695478;83;21451;-75
2021/05/29 03:08:05;;;;;;;;;;;;;;;11.08;77.04;98258.53;1724176;82;21385;-76
2021/05/29 03:10:31;;;;;;;14.35;9.35;;;;;;;10.99;76.64;98248.80;1721532;83;20180;-76
2021/05/29 03:12:57;;;;;;;15.63;10.15;;;;;;;10.99;76.64;98248.80;1721502;82;20949;-76
2021/05/29 03:15:24;;;;;;;14.07;9.23;;;;;;;11.11;76.87;98259.86;1721527;83;20981;-76
2021/05/29 03:17:51;;;;;;;17.10;11.97;;;;;;;11.18;77.20;98257.67;1721409;83;21012;-76
2021/05/29 03:20:20;;;;;;;18.75;10.38;;;;;;;11.17;77.14;98259.57;1721513;82;20925;-76
2021/05/29 03:22:46;;;;;;;13.43;9.95;;;;;;;11.17;77.14;98259.57;1721595;83;21389;-76
2021/05/29 03:25:13;;;;;;;18.10;11.00;;;;;;;11.22;76.95;98258.75;1721533;82;20873;-76
2021/05/29 03:27:39;;;;;;;17.40;11.65;;;;;;;11.25;77.64;98260.90;1721473;83;21102;-76
2021/05/29 03:30:08;;;;;;;22.37;15.68;;;;;;;11.26;76.95;98257.91;1721598;82;20885;-76
2021/05/29 03:32:33;;;;;;;;;;;;;;;11.23;77.44;98254.41;1697597;83;20989;-76
2021/05/29 03:35:00;;;;;;;22.80;15.10;;;;;;;11.19;78.03;98252.51;1721670;83;20172;-76
2021/05/29 03:37:26;;;;;;;24.25;16.32;;;;;;;11.20;77.11;98253.61;1722014;83;20953;-76
2021/05/29 03:39:52;;;;;;;18.75;12.23;;;;;;;11.26;76.76;98259.81;1721810;82;21172;-76
2021/05/29 03:42:18;;;;;;;16.15;10.68;;;;;;;11.33;76.56;98256.25;1721726;83;21039;-76
2021/05/29 03:44:43;;;;;;;22.40;16.95;;;;;;;11.40;76.42;98258.13;1721645;83;21488;-76
2021/05/29 03:47:09;;;;;;;26.93;18.75;;;;;;;11.40;76.32;98257.31;1721685;83;20924;-76
2021/05/29 03:49:35;;;;;;;27.27;19.48;;;;;;;11.40;76.46;98262.19;1721643;82;20952;-76
2021/05/29 03:52:02;;;;;;;31.85;20.17;;;;;;;11.42;76.48;98260.00;1721854;82;21280;-76
2021/05/29 03:54:28;;;;;;;31.00;22.15;;;;;;;11.33;77.06;98257.61;1721662;82;21381;-76
2021/05/29 03:56:54;;;;;;;30.68;21.90;;;;;;;11.36;76.90;98257.05;1721743;83;20933;-76
2021/05/29 03:59:21;;;;;;;33.53;24.20;;;;;;;11.38;76.77;98256.79;1720135;82;20996;-76
2021/05/29 04:01:47;;;;;;;34.53;24.37;;;;;;;11.29;78.45;98261.98;1720256;83;20930;-76
2021/05/29 04:04:13;;;;;;;35.92;25.30;;;;;;;11.19;79.08;98265.52;1720074;83;20976;-76
2021/05/29 04:06:39;;;;;;;33.35;22.90;;;;;;;11.17;78.23;98262.28;1720118;83;21488;-76
2021/05/29 04:09:06;;;;;;;37.67;25.30;;;;;;;11.16;78.96;98262.56;1720059;83;20898;-76
2021/05/29 04:11:32;;;;;;;38.83;28.10;;;;;;;11.04;80.31;98265.61;1720148;83;20929;-76
2021/05/29 04:13:58;;;;;;;36.63;24.52;;;;;;;11.02;79.16;98266.40;1720297;83;20977;-76
2021/05/29 04:16:24;;;;;;;33.65;22.30;;;;;;;10.97;81.10;98263.72;1727573;83;21682;-76
2021/05/29 04:18:51;;;;;;;39.38;26.42;;;;;;;10.97;81.10;98263.72;1698493;83;21424;-76
2021/05/29 04:21:17;;;;;;;36.17;24.05;;;;;;;10.91;81.47;98270.24;1669081;84;21095;-76
2021/05/29 04:23:43;;;;;;;31.75;21.70;;;;;;;10.71;83.04;98262.44;1745245;82;21018;-77
2021/05/29 04:26:10;;;;;;;25.70;18.00;;;;;;;10.65;82.79;98258.65;1745384;82;21002;-77
2021/05/29 04:28:36;;;;;;;21.35;13.95;;;;;;;10.63;82.32;98272.48;1745087;82;21102;-77
2021/05/29 04:31:03;;;;;;;26.48;20.82;;;;;;;10.64;81.97;98279.52;1745041;81;20967;-77
2021/05/29 04:33:29;;;;;;;30.70;20.48;;;;;;;10.53;82.49;98275.75;1745152;82;20940;-77
2021/05/29 04:35:55;;;;;;;24.90;18.02;;;;;;;10.54;81.54;98278.19;1745680;82;20951;-77
2021/05/29 04:38:21;;;;;;;19.05;13.32;;;;;;;10.61;81.04;98285.50;1745281;82;21581;-77
2021/05/29 04:40:47;;;;;;;23.87;17.00;;;;;;;10.66;80.46;98290.89;1745145;82;21232;-77
2021/05/29 04:43:13;;;;;;;46.33;34.33;;;;;;;10.54;80.97;98295.80;1745197;82;20892;-77
2021/05/29 04:45:41;;;;;;;15.60;11.45;;;;;;;10.50;80.08;98293.34;1745248;82;20884;-77
2021/05/29 04:48:09;;;;;;;16.73;11.15;;;;;;;10.50;80.80;98292.53;1745126;82;20987;-77
2021/05/29 04:53:20;;;;;;;17.12;10.78;;;;;;;10.45;81.04;98298.78;1745539;82;21487;-76
2021/05/29 04:55:46;;;;;;;10.40;7.15;;;;;;;10.41;80.87;98305.81;1745089;82;21375;-76
2021/05/29 04:58:12;;;;;;;6.92;5.70;;;;;;;10.27;81.59;98302.05;1719926;82;20944;-76
2021/05/29 05:00:38;;;;;;;7.58;6.10;;;;;;;10.26;81.04;98303.13;1709148;84;21528;-76
2021/05/29 05:03:04;;;;;;;9.08;6.12;;;;;;;10.20;82.04;98306.88;1709167;83;21590;-76
2021/05/29 05:05:30;;;;;;;9.10;6.37;;;;;;;10.07;82.22;98311.72;1709213;83;21101;-76
2021/05/29 05:07:56;;;;;;;8.55;5.25;;;;;;;10.15;81.34;98307.67;1709550;83;20878;-76
2021/05/29 05:10:22;;;;;;;9.30;5.97;;;;;;;10.12;81.83;98316.34;1709418;83;20925;-76
2021/05/29 05:12:48;;;;;;;10.60;6.05;;;;;;;10.01;82.55;98317.42;1709008;83;20874;-76
2021/05/29 05:15:15;;;;;;;7.95;5.55;;;;;;;10.09;81.56;98314.19;1709280;84;20917;-76
2021/05/29 05:17:41;;;;;;;10.70;5.72;;;;;;;10.12;81.71;98314.99;1709088;83;21908;-76
2021/05/29 05:20:09;;;;;;;9.38;7.08;;;;;;;10.18;81.92;98317.45;1709251;83;20930;-76
2021/05/29 05:22:35;;;;;;;11.95;6.92;;;;;;;10.24;82.52;98318.27;1709541;83;21391;-76
2021/05/29 05:25:05;;;;;;;8.58;6.53;;;;;;;10.29;82.04;98322.89;1709083;83;21033;-76
2021/05/29 05:27:32;;;;;;;9.88;5.55;;;;;;;10.34;81.85;98320.16;1709036;84;21001;-76
2021/05/29 05:29:57;;;;;;;7.87;5.15;;;;;;;10.31;81.88;98316.66;1687148;84;20962;-76
2021/05/29 05:32:23;;;;;;;7.67;6.47;;;;;;;10.28;81.14;98314.50;1709074;83;20909;-76
2021/05/29 05:34:50;;;;;;;7.50;5.60;;;;;;;10.33;81.85;98324.77;1709125;83;21024;-76
2021/05/29 05:37:16;;;;;;;8.25;4.58;;;;;;;10.22;82.28;98329.08;1708998;83;21036;-76
2021/05/29 05:39:42;;;;;;;10.05;5.60;;;;;;;10.25;82.42;98333.98;1709193;83;20969;-76
2021/05/29 05:42:08;;;;;;;10.75;6.50;;;;;;;10.28;82.20;98329.39;1709027;83;21714;-76
2021/05/29 05:44:34;;;;;;;9.68;5.62;;;;;;;10.31;81.37;98329.66;1708945;84;20902;-76
2021/05/29 05:47:00;;;;;;;8.35;5.17;;;;;;;10.37;81.27;98327.77;1709058;84;21061;-76
2021/05/29 05:49:27;;;;;;;10.45;6.62;;;;;;;10.47;80.65;98330.47;1709011;83;20845;-76
2021/05/29 05:51:53;;;;;;;9.13;7.42;;;;;;;10.48;81.46;98333.45;1709195;83;20993;-76
2021/05/29 05:54:19;;;;;;;11.22;7.03;;;;;;;10.54;80.32;98328.85;1709085;83;21791;-76
2021/05/29 05:56:45;;;;;;;10.90;7.65;;;;;;;10.55;80.16;98332.64;1709034;83;20965;-76
2021/05/29 05:59:11;;;;;;;12.23;8.68;;;;;;;10.56;80.19;98334.81;1709060;83;21114;-76
2021/05/29 06:01:38;;;;;;;13.18;9.98;;;;;;;10.54;80.15;98339.15;1709117;83;20838;-76
2021/05/29 06:04:05;;;;;;;14.25;10.68;;;;;;;10.42;81.53;98341.30;1709142;83;20941;-77
2021/05/29 06:06:31;;;;;;;13.03;9.08;;;;;;;10.42;81.53;98341.30;1711134;83;21115;-77
2021/05/29 06:08:57;;;;;;;14.45;10.05;;;;;;;10.47;81.48;98340.50;1693260;84;20872;-77
2021/05/29 06:11:23;;;;;;;12.93;10.23;;;;;;;10.51;80.81;98341.57;1697114;83;21016;-77
2021/05/29 06:21:36;;;;;;;12.28;9.30;;;;;;;10.56;81.08;98351.88;1721481;83;20909;-76
2021/05/29 06:24:02;;;;;;;13.75;9.45;;;;;;;10.41;80.83;98350.52;1721751;82;21455;-76
2021/05/29 06:26:28;;;;;;;12.93;9.58;;;;;;;10.41;80.83;98350.52;1721680;83;21080;-77
2021/05/29 06:28:54;;;;;;;12.65;9.58;;;;;;;10.38;81.95;98365.97;1721698;83;20945;-77
2021/05/29 06:31:20;;;;;;;14.60;10.13;;;;;;;10.38;81.95;98365.97;1721630;82;21476;-77
2021/05/29 06:33:46;;;;;;;13.20;10.25;;;;;;;10.30;82.34;98363.78;1721615;83;20918;-77
2021/05/29 06:36:12;;;;;;;11.63;9.60;;;;;;;10.28;81.88;98374.89;1721653;83;20889;-77
2021/05/29 06:38:38;;;;;;;13.03;9.30;;;;;;;10.28;81.94;98376.80;1721658;83;20937;-77
2021/05/29 06:41:04;;;;;;;11.55;8.68;;;;;;;10.28;81.37;98374.89;1721686;82;20956;-77
2021/05/29 06:43:31;;;;;;;12.03;9.43;;;;;;;10.20;81.80;98380.81;1721700;82;21502;-77
2021/05/29 06:45:57;;;;;;;10.65;7.75;;;;;;;10.11;82.33;98385.13;1721822;82;21397;-77
2021/05/29 06:48:24;;;;;;;8.75;7.33;;;;;;;10.06;82.08;98391.33;1721647;82;20874;-77
2021/05/29 06:50:54;;;;;;;10.30;7.35;;;;;;;9.97;82.25;98392.12;1721596;83;21471;-77
2021/05/29 06:53:23;;;;;;;8.68;6.85;;;;;;;9.97;82.23;98389.41;1721357;83;20949;-77
2021/05/29 06:58:40;;;;;;;9.10;6.00;;;;;;;9.97;82.72;98394.83;1695871;83;21024;-78
2021/05/29 07:01:02;;;;;;;8.55;6.33;;;;;;;9.95;82.27;98392.93;1717986;83;21433;-78
2021/05/29 07:03:28;;;;;;;9.45;6.12;;;;;;;9.96;81.83;98392.66;1719019;83;20940;-78
2021/05/29 07:05:54;;;;;;;5.78;4.35;;;;;;;9.97;82.71;98392.93;1719312;83;20885;-78
2021/05/29 07:08:20;;;;;;;6.83;4.80;;;;;;;10.02;81.81;98397.56;1719167;83;21228;-77
2021/05/29 07:10:46;;;;;;;5.65;4.03;;;;;;;10.08;81.97;98397.31;1719069;83;20889;-78
2021/05/29 07:13:12;;;;;;;7.95;4.03;;;;;;;10.03;82.22;98400.54;1692353;83;20988;-78
2021/05/29 07:15:39;;;;;;;5.12;3.83;;;;;;;10.07;81.41;98402.97;1718917;83;20941;-77
2021/05/29 07:18:11;;;;;;;4.47;3.37;;;;;;;10.18;81.02;98408.16;1719007;83;21362;-77
2021/05/29 07:20:39;;;;;;;5.03;4.15;;;;;;;10.11;81.25;98401.37;1718892;83;21111;-78
2021/05/29 07:23:05;;;;;;;4.53;3.40;;;;;;;10.24;80.86;98395.45;1718442;83;21352;-78
2021/05/29 07:25:32;;;;;;;5.58;4.03;;;;;;;10.31;80.19;98405.50;1718998;83;21009;-79
2021/05/29 07:27:58;;;;;;;5.75;3.52;;;;;;;10.32;80.33;98402.25;1692357;83;20862;-78
2021/05/29 07:30:24;;;;;;;5.47;3.77;;;;;;;10.47;80.82;98404.17;1719030;83;21040;-77
2021/05/29 07:32:50;;;;;;;8.03;5.20;;;;;;;10.63;79.79;98391.72;1718734;83;21865;-77
2021/05/29 07:35:16;;;;;;;7.33;5.10;;;;;;;10.90;79.56;98401.47;1718723;83;20854;-77
2021/05/29 07:37:42;;;;;;;13.58;5.47;;;;;;;11.08;78.90;98396.83;1692530;83;20966;-77
2021/05/29 07:40:08;;;;;;;8.38;3.40;;;;;;;11.07;78.36;98397.92;1719473;83;21041;-77
2021/05/29 07:42:35;;;;;;;4.50;3.42;;;;;;;11.34;78.17;98395.42;1692918;83;20954;-77
2021/05/29 07:45:02;;;;;;;4.10;2.92;;;;;;;11.47;77.49;98393.50;1719257;83;20986;-78
2021/05/29 07:47:28;;;;;;;3.98;3.05;;;;;;;11.62;77.41;98388.00;1719157;83;20857;-78
2021/05/29 07:49:54;;;;;;;7.78;3.22;;;;;;;11.68;76.35;98385.54;1719386;83;20972;-78
2021/05/29 07:52:20;;;;;;;4.00;2.77;;;;;;;11.54;73.78;98386.70;1718959;83;20909;-77
2021/05/29 07:54:46;;;;;;;4.42;2.83;;;;;;;11.58;74.94;98391.02;1718777;83;21641;-77
2021/05/29 07:57:12;;;;;;;4.25;2.70;;;;;;;11.70;75.02;98391.50;1719434;83;21668;-78
2021/05/29 07:59:38;;;;;;;4.58;3.10;;;;;;;11.82;74.94;98399.38;1709923;83;20950;-76
2021/05/29 08:02:05;;;;;;;5.37;3.62;;;;;;;11.97;74.97;98393.06;1704373;84;21094;-77
2021/05/29 08:04:31;;;;;;;4.05;3.33;;;;;;;12.03;74.13;98396.81;1704680;84;21022;-78
2021/05/29 08:06:57;;;;;;;4.65;3.20;;;;;;;11.99;71.89;98398.48;1677768;84;21022;-78
2021/05/29 08:09:24;;;;;;;4.65;3.75;;;;;;;12.00;72.92;98400.64;1704244;84;21266;-78
2021/05/29 08:11:51;;;;;;;7.03;4.28;;;;;;;12.04;73.35;98405.77;1677811;84;21009;-78
2021/05/29 08:14:17;;;;;;;4.60;3.25;;;;;;;12.04;73.15;98407.13;1704508;84;20931;-78
2021/05/29 08:16:43;;;;;;;3.62;2.58;;;;;;;12.05;73.29;98406.88;1704165;84;21078;-78
2021/05/29 08:19:11;;;;;;;3.92;2.60;;;;;;;12.16;73.47;98406.81;1704283;84;21045;-78
2021/05/29 08:21:46;;;;;;;5.10;3.62;;;;;;;12.30;71.90;98406.44;1704423;84;21104;-78
2021/05/29 08:24:13;;;;;;;3.80;2.98;;;;;;;12.50;73.41;98405.51;1704360;84;20926;-76
2021/05/29 08:26:39;;;;;;;6.37;3.47;;;;;;;12.56;71.86;98405.72;1704468;84;21386;-76
2021/05/29 08:29:06;;;;;;;3.55;2.30;;;;;;;12.62;72.37;98401.88;1704306;84;20982;-76
2021/05/29 08:31:32;;;;;;;3.12;2.10;;;;;;;12.76;71.53;98401.50;1704253;84;20962;-76
2021/05/29 08:33:58;;;;;;;3.25;2.30;;;;;;;12.74;70.91;98406.97;1704413;84;21105;-76
2021/05/29 08:36:24;;;;;;;2.72;2.00;;;;;;;12.98;71.20;98396.94;1678194;84;21394;-76
2021/05/29 08:38:50;;;;;;;2.33;1.50;;;;;;;13.20;70.31;98406.84;1704292;84;21477;-76
2021/05/29 08:41:16;;;;;;;2.50;1.62;;;;;;;13.43;69.55;98399.81;1704397;84;20867;-77
2021/05/29 08:43:43;;;;;;;2.80;2.00;;;;;;;13.41;69.57;98402.54;1704499;84;20882;-76
2021/05/29 08:46:09;;;;;;;2.20;1.80;;;;;;;13.69;69.88;98398.16;1704616;84;21498;-76
2021/05/29 08:48:35;;;;;;;2.45;1.90;;;;;;;14.02;69.33;98404.01;1704254;84;20843;-76
2021/05/29 08:51:13;;;;;;;5.92;1.98;;;;;;;13.83;64.12;98405.86;1678108;84;21034;-76
2021/05/29 08:53:44;;;;;;;4.83;2.00;;;;;;;13.90;66.75;98404.97;1704665;84;21104;-77
2021/05/29 08:56:10;;;;;;;3.33;1.75;;;;;;;13.95;67.02;98406.83;1703951;84;21056;-76
2021/05/29 08:58:36;;;;;;;2.08;1.42;;;;;;;14.09;66.96;98397.62;1704632;82;21473;-77
2021/05/29 09:01:03;;;;;;;2.37;1.80;;;;;;;14.13;65.67;98403.31;1713500;83;20992;-76
2021/05/29 09:03:54;;;;;;;3.27;1.98;;;;;;;14.07;63.62;98403.92;1713422;83;20997;-76
2021/05/29 09:06:31;;;;;;;2.70;1.95;;;;;;;14.11;65.30;98398.16;1695897;83;21036;-76
2021/05/29 09:08:59;;;;;;;6.10;1.92;;;;;;;14.08;62.90;98399.28;1713611;83;20961;-76
2021/05/29 09:11:44;;;;;;;3.13;2.17;;;;;;;14.25;64.24;98394.14;1714236;83;21256;-76
2021/05/29 09:14:29;;;;;;;3.35;2.08;;;;;;;13.90;60.65;98396.80;1712313;82;20933;-77
2021/05/29 09:17:19;;;;;;;3.30;2.10;;;;;;;14.07;62.24;98396.30;1708623;82;20946;-76
2021/05/29 09:20:02;;;;;;;3.87;2.40;;;;;;;14.32;62.75;98393.22;1713382;83;20978;-77
2021/05/29 09:22:56;;;;;;;3.75;2.60;;;;;;;14.60;61.70;98390.65;1713532;83;20949;-76
2021/05/29 09:25:24;;;;;;;3.62;2.62;;;;;;;14.96;62.51;98386.81;1713413;83;21647;-77
2021/05/29 09:27:59;;;;;;;2.90;1.92;;;;;;;15.48;61.95;98386.13;1685281;83;20949;-77
2021/05/29 09:30:46;;;;;;;3.60;2.10;;;;;;;15.86;59.74;98381.29;1713376;83;21120;-76
2021/05/29 09:33:15;;;;;;;2.80;2.20;;;;;;;16.79;56.38;98373.45;1713290;82;21480;-76
2021/05/29 09:35:41;;;;;;;4.08;3.12;;;;;;;17.55;55.13;98372.58;1713385;83;21425;-77
2021/05/29 09:38:07;;;;;;;3.60;2.30;;;;;;;18.46;55.34;98372.64;1685029;83;21683;-76
2021/05/29 09:40:33;;;;;;;5.45;4.00;;;;;;;19.18;53.76;98373.86;1662009;83;20981;-76
2021/05/29 09:43:08;;;;;;;3.77;2.40;;;;;;;18.82;51.81;98369.57;1713463;83;21052;-76
2021/05/29 09:45:34;;;;;;;3.15;2.02;;;;;;;19.10;50.21;98370.56;1685298;83;20981;-77
2021/05/29 09:48:20;;;;;;;3.83;2.58;;;;;;;19.16;47.13;98361.83;1713586;83;21088;-76
2021/05/29 09:51:12;;;;;;;5.97;3.30;;;;;;;18.82;49.87;98364.65;1713373;83;21402;-76
2021/05/29 09:53:44;;;;;;;4.35;2.77;;;;;;;18.21;51.26;98363.26;1713390;83;20921;-76
2021/05/29 09:56:31;;;;;;;2.98;2.47;;;;;;;18.04;51.90;98367.35;1685705;83;21060;-76
2021/05/29 09:59:06;;;;;;;4.33;3.37;;;;;;;18.41;51.71;98367.30;1712989;83;20961;-76
2021/05/29 10:01:51;;;;;;;4.90;1.98;;;;;;;18.44;46.89;98363.09;1704315;84;21333;-76
2021/05/29 10:04:37;;;;;;;2.98;2.27;;;;;;;18.63;49.73;98360.02;1704250;84;20977;-76
2021/05/29 10:07:12;;;;;;;5.30;2.92;;;;;;;18.98;48.84;98356.14;1704221;84;21013;-76
2021/05/29 10:09:44;;;;;;;4.95;3.15;;;;;;;18.31;46.17;98356.08;1704175;84;21066;-78
2021/05/29 10:12:10;;;;;;;4.70;2.35;;;;;;;19.25;46.86;98352.19;1704155;84;21552;-77
2021/05/29 10:14:37;;;;;;;6.03;3.10;;;;;;;18.87;44.32;98348.80;1704163;84;21482;-77
2021/05/29 10:17:08;;;;;;;4.67;2.98;;;;;;;18.60;47.93;98346.38;1704212;84;21143;-77
2021/05/29 10:19:35;;;;;;;6.80;3.75;;;;;;;17.96;47.48;98341.53;1704189;84;21073;-77
2021/05/29 10:22:16;;;;;;;7.83;3.60;;;;;;;17.64;48.55;98339.97;1704248;84;21067;-77
2021/05/29 10:24:43;;;;;;;3.15;2.40;;;;;;;17.89;49.69;98339.82;1704227;84;20982;-76
2021/05/29 10:27:24;;;;;;;3.60;2.90;;;;;;;19.21;47.69;98331.98;1704354;84;21081;-76
2021/05/29 10:29:59;;;;;;;6.12;3.52;;;;;;;20.82;42.83;98323.92;1704154;84;21081;-76
2021/05/29 10:32:26;;;;;;;3.83;3.10;;;;;;;20.70;44.46;98327.45;1704074;84;21002;-76
2021/05/29 10:34:56;;;;;;;4.33;3.37;;;;;;;19.87;42.44;98320.55;1704252;84;21045;-76
2021/05/29 10:37:29;;;;;;;3.65;2.80;;;;;;;19.20;43.67;98333.13;1745082;81;21098;-76
2021/05/29 10:40:15;;;;;;;4.20;2.77;;;;;;;21.70;42.08;98322.57;1739257;82;20971;-77
2021/05/29 10:42:41;;;;;;;4.12;2.90;;;;;;;22.38;38.87;98325.47;1725736;82;21814;-76
2021/05/29 10:45:25;;;;;;;3.15;2.77;;;;;;;20.29;40.75;98325.52;1744987;82;21031;-76
2021/05/29 10:48:15;;;;;;;5.25;3.83;;;;;;;19.36;42.69;98325.95;1745184;82;20992;-77
2021/05/29 10:53:44;;;;;;;4.28;3.45;;;;;;;18.05;45.05;98331.95;1745185;82;20984;-76
2021/05/29 10:56:22;;;;;;;6.47;3.02;;;;;;;17.22;47.54;98331.03;1745265;81;21035;-76
2021/05/29 10:59:13;;;;;;;3.12;2.52;;;;;;;17.27;46.38;98348.70;1745219;82;20951;-77
2021/05/29 11:01:46;;;;;;;5.92;2.75;;;;;;;16.12;49.05;98350.12;1745171;82;21019;-76
2021/05/29 11:04:23;;;;;;;5.08;2.98;;;;;;;15.30;51.32;98357.81;1745159;82;20995;-77
2021/05/29 11:06:59;;;;;;;4.05;2.58;;;;;;;14.49;54.07;98377.73;1745145;82;21070;-76
2021/05/29 11:09:37;;;;;;;3.20;2.42;;;;;;;14.11;53.96;98366.83;1745054;82;21097;-76
2021/05/29 11:12:05;;;;;;;6.50;3.10;;;;;;;13.73;54.50;98380.94;1745133;82;21440;-76
2021/05/29 11:14:52;;;;;;;4.08;3.42;;;;;;;13.41;55.67;98373.95;1745182;82;20940;-76
2021/05/29 11:17:28;;;;;;;4.97;3.45;;;;;;;13.13;58.26;98379.67;1725776;82;21026;-76
2021/05/29 11:20:16;;;;;;;5.08;3.83;;;;;;;12.61;61.02;98380.67;1745188;81;21427;-76
2021/05/29 11:22:48;;;;;;;5.92;4.45;;;;;;;12.37;63.43;98383.29;1744825;82;21056;-76
2021/05/29 11:25:17;;;;;;;7.05;4.65;;;;;;;12.18;63.91;98382.34;1744839;82;20975;-75
2021/05/29 11:27:44;;;;;;;;;;;;;;;12.22;61.88;98375.78;1747688;82;20972;-75
2021/05/29 11:30:33;;;;;;;7.15;4.35;;;;;;;12.22;63.06;98378.50;1745123;81;20205;-75
2021/05/29 11:33:01;;;;;;;29.02;26.00;;;;;;;12.27;62.69;98375.77;1744630;82;20972;-76
2021/05/29 11:35:43;;;;;;;10.00;8.98;;;;;;;12.28;67.18;98367.88;1745197;81;21194;-76
2021/05/29 11:38:26;;;;;;;5.70;4.40;;;;;;;12.32;64.31;98369.75;1745267;82;21039;-77
2021/05/29 11:41:09;;;;;;;6.67;3.75;;;;;;;12.43;65.00;98374.02;1745568;82;20884;-77
2021/05/29 11:43:52;;;;;;;5.85;4.08;;;;;;;12.53;64.37;98373.12;1745087;82;20951;-76
2021/05/29 11:46:26;;;;;;;4.80;3.42;;;;;;;12.61;64.72;98364.36;1745188;82;20948;-76
2021/05/29 11:49:06;;;;;;;4.95;3.70;;;;;;;12.62;64.20;98365.17;1745190;82;21263;-76
2021/05/29 11:51:35;;;;;;;5.22;3.70;;;;;;;12.78;63.28;98363.14;1745118;82;21004;-76
2021/05/29 11:54:19;;;;;;;9.58;5.35;;;;;;;13.19;63.03;98356.24;1722450;82;21027;-77